Terminal Aerodrome Forecast
Issued by NWS

Home | Current Version | Previous Version | Text Only | Print | Product List | Glossary Off
Versions: 1 2 3 4 5 6 7 8 9 10 11 12 13 14 15 16 17 18 19 20 21 22 23 24 25 26

000
FTUS43 KDLH 220102 AAA
TAFHYR
TAF AMD
KHYR 220102Z 2201/2224 13004KT P6SM SCT025 SCT100 WS020/18040KT
     FM220400 15007KT P6SM -SHRA VCTS BKN020CB BKN100 WS020/19045KT
     FM221100 17005KT 3SM BR VCSH BKN015 BKN100
     FM221500 15011KT P6SM BKN020
     FM221600 16012KT P6SM SCT045=

USA.gov is the U.S. government's official web portal to all federal, state and local government web resources and services.